Flight Track Log - Related Links

Times and Time Zones

All times are in EDT time to prevent confusion due to time zone crossing. See the EJA831 flight status page for this flight to view local times or setup timezone preferences in your user account.

Time Position Orientation Groundspeed Altitude Reporting Facility
EDT Latitude Longitude Course Direction KTS MPH feet Rate Location/Type
Sun 02:02:18 PM 34.7586 -87.6472 313° West 427 491 2,600  Level Memphis Center
Sun 02:03:18 PM 34.8058 -87.7092 313° West 353 406 3,000 200 Climbing Memphis Center
Sun 02:04:18 PM 34.8544 -87.6442 48° Northeast 179 206 3,000 1,500 Level Memphis Center
Sun 02:05:18 PM 34.8797 -87.5522 71° East 189 217 6,000 3,350 Climbing Memphis Center
Sun 02:06:18 PM 34.9108 -87.4550 69° East 244 281 9,700 3,550 Climbing Memphis Center
Sun 02:07:18 PM 34.9417 -87.3525 70° East 287 330 13,100 3,150 Climbing Memphis Center
Sun 02:08:18 PM 34.9725 -87.2450 71° East 317 365 16,000 2,011 Climbing Memphis Center
Sun 02:10:17 PM 35.0397 -87.0144 70° East 358 412 19,100 1,542 Climbing Atlanta Center
Sun 02:11:17 PM 35.0758 -86.8939 70° East 364 419 20,600 1,500 Climbing Atlanta Center
Sun 02:12:17 PM 35.1100 -86.7733 71° East 364 419 22,100 1,500 Climbing Atlanta Center
Sun 02:13:17 PM 35.1481 -86.6475 70° East 375 432 23,600 1,400 Climbing Atlanta Center
Sun 02:14:17 PM 35.1819 -86.5267 71° East 380 437 24,900 1,150 Climbing Atlanta Center
Sun 02:15:17 PM 35.2181 -86.3903 72° East 373 429 25,900 1,050 Climbing Atlanta Center
Sun 02:16:17 PM 35.2558 -86.2642 70° East 380 437 27,000 1,000 Climbing Atlanta Center
Sun 02:17:17 PM 35.2894 -86.1353 72° East 392 451 27,900 1,000 Climbing Atlanta Center
Sun 02:18:17 PM 35.3314 -85.9939 70° East 413 475 29,000 1,400 Climbing Atlanta Center
Sun 02:19:17 PM 35.3689 -85.8597 71° East 424 488 30,700 1,300 Climbing Atlanta Center
Sun 02:20:17 PM 35.4061 -85.7333 70° East 424 488 31,600 1,000 Climbing Atlanta Center
Sun 02:21:17 PM 35.4456 -85.5886 71° East 430 495 32,700 1,200 Climbing Atlanta Center
Sun 02:22:17 PM 35.4869 -85.4467 70° East 435 501 34,000 1,150 Climbing Atlanta Center
Sun 02:23:17 PM 35.5239 -85.3044 72° East 440 506 35,000 500 Climbing Atlanta Center
Sun 02:24:17 PM 35.5672 -85.1544 70° East 445 512 35,000  Level Atlanta Center
Sun 02:25:17 PM 35.6061 -85.0017 73° East 451 519 35,000  Level Atlanta Center
Sun 02:26:17 PM 35.6489 -84.8436 72° East 467 537 35,000  Level Atlanta Center
Sun 02:27:17 PM 35.6917 -84.6883 71° East 473 544 35,000  Level Atlanta Center
Sun 02:28:17 PM 35.7339 -84.5275 72° East 479 551 35,000  Level Atlanta Center
Sun 02:29:17 PM 35.7761 -84.3767 71° East 479 551 35,000  Level Atlanta Center
Sun 02:30:17 PM 35.8183 -84.2231 71° East 474 545 35,000  Level Atlanta Center
Sun 02:31:17 PM 35.8600 -84.0644 72° East 474 545 35,000  Level Atlanta Center
Sun 02:32:17 PM 35.9142 -83.9156 66° East 474 545 35,000  Level Atlanta Center
Sun 02:33:17 PM 36.0122 -83.8025 43° Northeast 474 545 35,000  Level Atlanta Center
Sun 02:34:17 PM 36.1267 -83.7097 33° Northeast 467 537 35,000  Level Atlanta Center
Sun 02:35:17 PM 36.2411 -83.6139 34° Northeast 480 552 35,000  Level Atlanta Center
Sun 02:36:35 PM 36.3989 -83.4792 34° Northeast 490 564 35,000  Level Indianapolis Center
Sun 02:37:37 PM 36.5122 -83.3831 34° Northeast 491 565 35,000  Level Indianapolis Center
Sun 02:38:39 PM 36.6267 -83.2858 34° Northeast 493 567 35,000  Level Indianapolis Center
Sun 02:39:41 PM 36.7394 -83.1894 34° Northeast 492 566 35,000  Level Indianapolis Center
Sun 02:40:43 PM 36.8522 -83.0933 34° Northeast 487 560 35,000  Level Indianapolis Center
Sun 02:41:45 PM 36.9700 -82.9964 33° Northeast 496 571 35,000 -339 Level Indianapolis Center
Sun 02:42:47 PM 37.0872 -82.8917 35° Northeast 503 579 34,300 -629 Descending Indianapolis Center
Sun 02:43:49 PM 37.1978 -82.7939 35° Northeast 487 560 33,700 -1,210 Descending Indianapolis Center
Sun 02:44:51 PM 37.3269 -82.6817 35° Northeast 483 556 31,800 -1,597 Descending Indianapolis Center
Sun 02:45:53 PM 37.4347 -82.5878 35° Northeast 471 542 30,400 -1,452 Descending Indianapolis Center
Sun 02:46:55 PM 37.5456 -82.4883 35° Northeast 483 556 28,800 -1,500 Descending Indianapolis Center
Sun 02:47:57 PM 37.6594 -82.3864 35° Northeast 498 573 27,300 -871 Descending Indianapolis Center
Sun 02:48:59 PM 37.7725 -82.2881 34° Northeast 493 567 27,000 -145 Descending Indianapolis Center
Sun 02:50:01 PM 37.8836 -82.1892 35° Northeast 487 560 27,000  Level Indianapolis Center
Sun 02:51:03 PM 37.9953 -82.0900 35° Northeast 484 557 27,000  Level Indianapolis Center
Sun 02:52:05 PM 38.1053 -81.9919 35° Northeast 482 555 27,000 -339 Level Indianapolis Center
Sun 02:53:07 PM 38.2383 -81.8717 35° Northeast 488 562 26,300 -1,065 Descending Indianapolis Center
Sun 02:54:09 PM 38.3469 -81.7708 36° Northeast 485 558 24,800 -1,113 Descending Indianapolis Center
Sun 02:55:11 PM 38.4300 -81.6456 50° Northeast 464 534 24,000 -387 Descending Indianapolis Center
Sun 02:56:13 PM 38.5117 -81.5194 50° Northeast 466 536 24,000 -435 Level Indianapolis Center
Sun 02:57:15 PM 38.5931 -81.3922 51° Northeast 471 542 23,100 -1,500 Descending Indianapolis Center
Sun 02:58:17 PM 38.6886 -81.2450 50° Northeast 458 527 20,900 -1,935 Descending Indianapolis Center
Sun 02:59:19 PM 38.7653 -81.1250 51° Northeast 444 511 19,100 -1,790 Descending Indianapolis Center
Sun 03:00:21 PM 38.8403 -81.0081 51° Northeast 430 495 17,200 -1,742 Descending Indianapolis Center
Sun 03:01:23 PM 38.9125 -80.8953 51° Northeast 416 479 15,500 -1,694 Descending Indianapolis Center
Sun 03:02:25 PM 38.9808 -80.7867 51° Northeast 398 458 13,700 -1,935 Descending Indianapolis Center
Sun 03:03:27 PM 39.0608 -80.6583 51° Northeast 386 444 11,500 -1,306 Descending Indianapolis Center
Sun 03:04:29 PM 39.1236 -80.5575 51° Northeast 367 422 11,000 -242 Descending Indianapolis Center
Sun 03:05:31 PM 39.1886 -80.4581 50° Northeast 364 419 11,000 -387 Level Indianapolis Center
Sun 03:06:33 PM 39.2858 -80.4300 13° North 355 409 10,200 -484 Descending Indianapolis Center
Sun 03:07:35 PM 39.3744 -80.4042 13° North 336 387 10,000 -435 Descending Indianapolis Center
Sun 03:08:37 PM 39.4600 -80.3811 12° North 321 369 9,300 -1,122 Descending Indianapolis Center
Sun 03:09:38 PM 39.5442 -80.3522 15° North 317 365 7,700 -1,707 Descending Indianapolis Center
Sun 03:10:40 PM 39.5781 -80.2339 70° East 299 344 5,800 -1,461 Descending Indianapolis Center
Sun 03:12:51 PM 39.6425 -80.0561 65° Northeast 282 325 3,000 -870 Descending Cleveland Center
Sun 03:13:53 PM 39.6844 -79.9875 52° Northeast 237 273 3,000 -339 Level Cleveland Center
Sun 03:14:55 PM 39.6858 -79.9381 88° East 176 203 2,300 -677 Descending Cleveland Center
Sun 03:15:57 PM 39.6619 -79.9097 138° Southeast 140 161 1,600 -677 Descending Cleveland Center
Sun 03:17:00 PM 39.6436 -79.9175 218° Southwest  Level Estimated

Login

Don't have an account? Register now (free) for customized features, flight alerts, and more!